Time;durP1;ratioP1;P1;durP2;ratioP2;P2;SDS_P1;SDS_P2;PMS_P1;PMS_P2;Temp;Humidity;BMP_temperature;BMP_pressure;BME280_temperature;BME280_humidity;BME280_pressure;Samples;Min_cycle;Max_cycle;Signal;HPM_P1;HPM_P2
2021/07/20 00:00:53;;;;;;;0.80;0.80;;;;;;;19.58;57.60;102258.94;5040312;28;20021;-85
2021/07/20 00:03:19;;;;;;;0.10;0.10;;;;;;;19.54;57.36;102263.56;5039689;28;20099;-86
2021/07/20 00:05:46;;;;;;;0.00;0.00;;;;;;;19.51;57.66;102264.53;5034374;28;20029;-85
2021/07/20 00:08:13;;;;;;;0.57;0.57;;;;;;;19.47;57.82;102270.06;5034898;28;20037;-85
2021/07/20 00:10:49;;;;;;;0.30;0.30;;;;;;;19.45;57.99;102266.56;5038569;28;20484;-85
2021/07/20 00:13:16;;;;;;;0.10;0.10;;;;;;;19.44;57.85;102264.78;5043636;28;20021;-83
2021/07/20 00:15:43;;;;;;;0.08;0.08;;;;;;;19.46;58.14;102265.63;5034973;28;20033;-86
2021/07/20 00:18:13;;;;;;;0.00;0.00;;;;;;;19.47;57.69;102262.88;5037287;28;20040;-85
2021/07/20 00:20:40;;;;;;;0.00;0.00;;;;;;;19.45;58.16;102259.38;5046314;28;20032;-85
2021/07/20 00:23:08;;;;;;;0.30;0.30;;;;;;;19.45;57.60;102266.56;5038707;28;20064;-85
2021/07/20 00:25:35;;;;;;;0.20;0.20;;;;;;;19.43;57.53;102269.31;5042676;28;20032;-86
2021/07/20 00:28:02;;;;;;;1.95;0.65;;;;;;;19.41;57.85;102263.09;5040645;28;20099;-86
2021/07/20 00:30:30;;;;;;;0.10;0.10;;;;;;;19.37;58.18;102262.31;5043131;28;20075;-86
2021/07/20 00:32:57;;;;;;;0.08;0.08;;;;;;;19.36;58.07;102263.25;5035318;28;20029;-86
2021/07/20 00:35:24;;;;;;;0.10;0.10;;;;;;;19.34;58.11;102264.22;5047201;28;20116;-85
2021/07/20 00:37:51;;;;;;;0.10;0.10;;;;;;;19.34;57.85;102262.44;5038084;28;20024;-85
2021/07/20 00:40:20;;;;;;;0.08;0.08;;;;;;;19.31;58.33;102262.53;5036782;28;20033;-86
2021/07/20 00:42:47;;;;;;;0.43;0.43;;;;;;;19.30;57.83;102268.84;5036597;28;20112;-87
2021/07/20 00:45:16;;;;;;;0.20;0.20;;;;;;;19.29;57.84;102266.19;5034056;28;20058;-86
2021/07/20 00:47:44;;;;;;;0.10;0.10;;;;;;;19.27;58.01;102262.69;5035562;28;20033;-85
2021/07/20 00:50:12;;;;;;;0.30;0.30;;;;;;;19.24;57.71;102266.38;5036787;28;20026;-85
2021/07/20 00:52:39;;;;;;;0.73;0.73;;;;;;;19.20;57.92;102253.97;5033856;28;20060;-85
2021/07/20 00:55:07;;;;;;;7.22;0.75;;;;;;;19.19;58.45;102265.63;5034351;28;20116;-86
2021/07/20 00:57:33;;;;;;;0.10;0.10;;;;;;;19.16;58.37;102255.88;5034945;28;20396;-86
2021/07/20 01:00:00;;;;;;;1.55;1.45;;;;;;;19.15;58.24;102266.66;5033527;28;20025;-86
2021/07/20 01:02:28;;;;;;;0.30;0.30;;;;;;;19.14;57.92;102259.53;5038260;28;20079;-88
2021/07/20 01:04:55;;;;;;;0.40;0.40;;;;;;;19.10;58.58;102256.06;5034213;28;20033;-86
2021/07/20 01:07:22;;;;;;;0.75;0.75;;;;;;;19.07;58.41;102265.09;5040184;28;20388;-86
2021/07/20 01:09:50;;;;;;;0.30;0.30;;;;;;;19.03;58.58;102255.41;5036247;28;20091;-85
2021/07/20 01:12:19;;;;;;;0.10;0.10;;;;;;;19.02;58.52;102258.16;5041411;28;20021;-86
2021/07/20 01:14:47;;;;;;;0.40;0.40;;;;;;;18.98;58.71;102260.06;5033209;28;20025;-85
2021/07/20 01:17:13;;;;;;;8.30;0.60;;;;;;;18.95;58.57;102252.09;5033293;28;20472;-86
2021/07/20 01:19:54;;;;;;;0.10;0.10;;;;;;;18.97;58.79;102260.97;5043971;28;20365;-85
2021/07/20 01:22:28;;;;;;;0.10;0.10;;;;;;;18.90;59.23;102259.38;5044116;28;20044;-87
2021/07/20 01:24:56;;;;;;;0.00;0.00;;;;;;;18.87;58.82;102265.72;5040831;28;20023;-86
2021/07/20 01:27:22;;;;;;;0.17;0.17;;;;;;;18.87;58.89;102262.19;5033222;28;20059;-86
2021/07/20 01:29:50;;;;;;;0.75;0.75;;;;;;;18.85;59.10;102248.78;5035717;28;20504;-86
2021/07/20 01:32:17;;;;;;;0.17;0.17;;;;;;;18.88;58.89;102250.53;5044170;28;20030;-86
2021/07/20 01:34:45;;;;;;;0.25;0.25;;;;;;;18.84;59.40;102252.44;5032935;28;20388;-86
2021/07/20 01:37:14;;;;;;;0.08;0.08;;;;;;;18.85;58.68;102247.91;5032607;28;20026;-86
2021/07/20 01:39:43;;;;;;;0.32;0.32;;;;;;;18.84;58.59;102249.75;5033191;28;20029;-86
2021/07/20 01:42:11;;;;;;;0.10;0.10;;;;;;;18.80;58.48;102248.06;5033144;28;20428;-86
2021/07/20 01:44:37;;;;;;;1.88;0.55;;;;;;;18.75;58.90;102247.34;5033183;28;20034;-86
2021/07/20 01:47:04;;;;;;;0.10;0.10;;;;;;;18.73;59.07;102252.75;5032984;28;20044;-86
2021/07/20 01:49:31;;;;;;;0.05;0.05;;;;;;;18.71;59.24;102251.91;5032931;28;20507;-86
2021/07/20 01:51:59;;;;;;;0.10;0.10;;;;;;;18.68;59.01;102252.03;5035942;28;20030;-85
2021/07/20 01:54:27;;;;;;;0.00;0.00;;;;;;;18.66;58.92;102245.81;5032829;28;20032;-85
2021/07/20 01:56:53;;;;;;;0.03;0.03;;;;;;;18.65;58.70;102249.44;5032639;28;20041;-85
2021/07/20 01:59:19;;;;;;;0.10;0.10;;;;;;;18.64;58.90;102247.69;5032858;28;20087;-86
2021/07/20 02:01:56;;;;;;;0.10;0.10;;;;;;;18.62;58.75;102257.59;5032736;28;20392;-85
2021/07/20 02:10:01;;;;;;;0.10;0.10;;;;;;;18.54;58.72;102248.88;5032589;28;20119;-86
2021/07/20 02:12:34;;;;;;;0.00;0.00;;;;;;;18.50;59.20;102242.72;5032164;28;20113;-85
2021/07/20 02:15:03;;;;;;;0.22;0.22;;;;;;;18.50;59.00;102248.09;5033731;28;20033;-85
2021/07/20 02:17:30;;;;;;;0.22;0.22;;;;;;;18.51;59.30;102251.69;5032443;28;20036;-85
2021/07/20 02:22:52;;;;;;;0.50;0.50;;;;;;;18.51;59.25;102260.59;5070177;28;20460;-85
2021/07/20 02:25:19;;;;;;;1.88;0.52;;;;;;;18.51;59.14;102257.03;5051531;28;20096;-85
2021/07/20 02:27:47;;;;;;;0.25;0.25;;;;;;;18.51;59.35;102255.22;5049828;28;20044;-85
2021/07/20 02:30:15;;;;;;;1.40;0.75;;;;;;;18.53;59.19;102260.53;5036234;28;20028;-85
2021/07/20 02:32:44;;;;;;;0.00;0.00;;;;;;;18.52;59.25;102257.00;5049584;28;20389;-85
2021/07/20 02:35:17;;;;;;;0.20;0.20;;;;;;;18.51;58.95;102257.91;5049443;28;20025;-85
2021/07/20 02:37:45;;;;;;;0.10;0.10;;;;;;;18.49;58.93;102262.47;5049013;28;20037;-85
2021/07/20 02:40:13;;;;;;;0.13;0.13;;;;;;;18.46;58.98;102262.56;5049362;28;20384;-85
2021/07/20 02:42:40;;;;;;;0.00;0.00;;;;;;;18.46;58.78;102264.38;5049638;28;20132;-85
2021/07/20 02:45:09;;;;;;;0.00;0.00;;;;;;;18.43;59.35;102265.34;5049320;28;20541;-85
2021/07/20 02:47:37;;;;;;;0.40;0.40;;;;;;;18.42;59.55;102261.75;5049381;28;20389;-85
2021/07/20 02:50:07;;;;;;;0.00;0.00;;;;;;;18.43;59.50;102258.16;5049228;28;20210;-85
2021/07/20 02:52:36;;;;;;;0.00;0.00;;;;;;;18.42;59.53;102266.25;5049434;28;20420;-85
2021/07/20 02:55:03;;;;;;;0.10;0.10;;;;;;;18.42;59.53;102266.25;5049132;28;20029;-84
2021/07/20 02:57:32;;;;;;;1.50;1.40;;;;;;;18.42;58.99;102271.63;5048690;28;20033;-85
2021/07/20 03:00:00;;;;;;;0.00;0.00;;;;;;;18.40;58.73;102274.34;5048703;28;20112;-86
2021/07/20 03:02:27;;;;;;;0.00;0.00;;;;;;;18.37;59.35;102274.44;5048960;28;20441;-86
2021/07/20 03:04:53;;;;;;;1.25;1.05;;;;;;;18.36;59.15;102275.38;5048840;28;20068;-85
2021/07/20 03:07:27;;;;;;;0.00;0.00;;;;;;;18.40;58.97;102268.09;5048979;28;20035;-85
2021/07/20 03:09:55;;;;;;;1.13;1.13;;;;;;;18.35;59.38;102265.53;5049230;28;20029;-85
2021/07/20 03:12:25;;;;;;;0.20;0.20;;;;;;;18.32;59.28;102271.03;5048911;28;20025;-85
2021/07/20 03:14:53;;;;;;;0.10;0.10;;;;;;;18.30;59.64;102269.31;5048983;28;20084;-85
2021/07/20 03:17:23;;;;;;;0.10;0.10;;;;;;;18.30;59.20;102275.53;5048193;28;20029;-85
2021/07/20 03:19:50;;;;;;;0.30;0.30;;;;;;;18.27;59.10;102272.97;5048913;28;20033;-84
2021/07/20 03:22:17;;;;;;;0.10;0.10;;;;;;;18.26;59.44;102272.06;5048485;28;20069;-85
2021/07/20 03:24:46;;;;;;;0.43;0.43;;;;;;;18.25;59.32;102264.06;5048598;28;20109;-85
2021/07/20 03:27:13;;;;;;;0.20;0.20;;;;;;;18.22;59.48;102274.91;5048844;28;20106;-84
2021/07/20 03:29:42;;;;;;;0.40;0.40;;;;;;;18.20;59.19;102271.38;5048540;28;20021;-85
2021/07/20 03:32:12;;;;;;;0.00;0.00;;;;;;;18.18;58.87;102260.69;5045921;28;20503;-85
2021/07/20 03:34:41;;;;;;;0.10;0.10;;;;;;;18.17;59.34;102263.41;5035094;28;20396;-85
2021/07/20 03:37:08;;;;;;;0.73;0.73;;;;;;;18.15;59.71;102262.59;5035078;28;20490;-85
2021/07/20 03:39:38;;;;;;;0.20;0.20;;;;;;;18.15;59.46;102265.28;5035254;28;20079;-85
2021/07/20 03:42:06;;;;;;;5.38;0.85;;;;;;;18.15;59.70;102262.59;5034776;28;20392;-86
2021/07/20 03:44:33;;;;;;;0.08;0.08;;;;;;;18.15;59.57;102262.59;5035063;28;20026;-84
2021/07/20 03:47:01;;;;;;;0.20;0.20;;;;;;;18.17;59.52;102260.72;5034383;28;20028;-85
2021/07/20 03:49:28;;;;;;;0.28;0.28;;;;;;;18.15;59.39;102262.59;5034703;28;20029;-85
2021/07/20 03:51:56;;;;;;;0.47;0.47;;;;;;;18.13;59.14;102269.78;5034676;28;20611;-85
2021/07/20 03:54:23;;;;;;;0.03;0.03;;;;;;;18.10;59.32;102265.41;5034945;28;20028;-85
2021/07/20 03:56:51;;;;;;;0.25;0.25;;;;;;;18.09;59.43;102269.91;5034611;28;20030;-85
2021/07/20 03:59:20;;;;;;;0.30;0.30;;;;;;;18.09;59.42;102269.00;5033886;28;20493;-85
2021/07/20 04:01:49;;;;;;;1.65;1.45;;;;;;;18.06;59.46;102269.97;5034637;28;20033;-85
2021/07/20 04:04:19;;;;;;;0.00;0.00;;;;;;;18.06;59.55;102272.66;5058041;22;20045;-95
2021/07/20 04:06:48;;;;;;;0.10;0.10;;;;;;;18.05;59.97;102273.56;5057442;28;20571;-94
2021/07/20 04:09:16;;;;;;;0.10;0.10;;;;;;;18.04;60.03;102271.81;5059124;28;20081;-93
2021/07/20 04:11:43;;;;;;;1.10;1.00;;;;;;;18.05;60.02;102270.88;5038365;28;20124;-95
2021/07/20 04:14:13;;;;;;;0.10;0.10;;;;;;;18.07;59.76;102258.31;5053180;28;20101;-96
2021/07/20 04:16:42;;;;;;;0.20;0.20;;;;;;;18.07;59.76;102266.38;5039372;28;20033;-94
2021/07/20 04:19:09;;;;;;;0.20;0.20;;;;;;;18.05;59.53;102268.22;5039555;28;20021;-95
2021/07/20 04:21:38;;;;;;;0.13;0.13;;;;;;;18.08;59.74;102272.59;5037934;28;20030;-96
2021/07/20 04:24:05;;;;;;;0.10;0.10;;;;;;;18.05;59.59;102270.88;5038910;28;20037;-96
2021/07/20 04:26:31;;;;;;;1.48;1.17;;;;;;;18.05;59.66;102262.84;5039069;28;20064;-95
2021/07/20 04:28:59;;;;;;;0.00;0.00;;;;;;;18.07;59.32;102274.41;5025849;28;20053;-94
2021/07/20 04:31:28;;;;;;;5.07;0.60;;;;;;;18.06;59.53;102269.09;5038238;28;20048;-96
2021/07/20 04:33:55;;;;;;;0.52;0.50;;;;;;;18.05;59.23;102268.22;5037977;28;20059;-96
2021/07/20 04:36:22;;;;;;;0.17;0.17;;;;;;;18.04;59.48;102270.94;5039856;28;20096;-96
2021/07/20 04:38:49;;;;;;;0.65;0.65;;;;;;;18.05;59.77;102267.34;5040747;28;20872;-96
2021/07/20 04:41:20;;;;;;;0.10;0.10;;;;;;;18.09;59.70;102269.91;5039047;28;20172;-95
2021/07/20 04:43:47;;;;;;;0.57;0.57;;;;;;;18.10;59.78;102270.75;5031231;28;20037;-95
2021/07/20 04:46:16;;;;;;;0.10;0.10;;;;;;;18.13;59.46;102269.78;5041696;28;20037;-96
2021/07/20 04:48:45;;;;;;;0.20;0.20;;;;;;;18.13;59.92;102270.69;5042444;28;20492;-96
2021/07/20 04:51:12;;;;;;;0.00;0.00;;;;;;;18.18;59.80;102275.91;5042901;28;20040;-95
2021/07/20 04:53:40;;;;;;;0.10;0.10;;;;;;;18.20;59.67;102274.94;5043622;28;20036;-95
2021/07/20 04:56:07;;;;;;;0.20;0.20;;;;;;;18.22;59.74;102269.53;5043649;28;20093;-96
2021/07/20 04:58:34;;;;;;;0.10;0.10;;;;;;;18.24;59.42;102278.41;5041695;28;20093;-96
2021/07/20 05:01:03;;;;;;;0.28;0.28;;;;;;;18.26;59.55;102279.25;5040234;28;20033;-96
2021/07/20 05:03:33;;;;;;;0.00;0.00;;;;;;;18.28;59.50;102274.72;5038593;28;20021;-95
2021/07/20 05:06:00;;;;;;;0.10;0.10;;;;;;;18.30;59.18;102280.03;5038144;28;20093;-96
2021/07/20 05:08:27;;;;;;;0.00;0.00;;;;;;;18.33;59.76;102275.47;5038841;28;20037;-96
2021/07/20 05:10:55;;;;;;;0.10;0.10;;;;;;;18.39;59.77;102271.69;5040465;28;20116;-96
2021/07/20 05:13:23;;;;;;;0.10;0.10;;;;;;;18.43;59.86;102268.91;5039254;28;20033;-92
2021/07/20 05:15:54;;;;;;;0.13;0.13;;;;;;;18.52;59.36;102275.78;5038947;28;20472;-96
2021/07/20 05:18:21;;;;;;;0.10;0.10;;;;;;;18.54;59.39;102267.69;5038669;28;20029;-95
2021/07/20 05:20:51;;;;;;;0.10;0.10;;;;;;;18.59;59.34;102273.78;5040655;28;20033;-96
2021/07/20 05:23:19;;;;;;;0.32;0.32;;;;;;;18.63;59.40;102269.19;5043340;28;20026;-96
2021/07/20 05:25:50;;;;;;;0.30;0.30;;;;;;;18.66;59.30;102275.34;5040854;28;20389;-96
2021/07/20 05:28:17;;;;;;;0.10;0.10;;;;;;;18.68;59.76;102273.50;5044313;28;20373;-95
2021/07/20 05:30:45;;;;;;;0.10;0.10;;;;;;;18.72;59.37;102275.16;5047757;28;20045;-96
2021/07/20 05:33:12;;;;;;;0.95;0.82;;;;;;;18.76;59.12;102276.81;5049514;28;20022;-96
2021/07/20 05:35:40;;;;;;;0.10;0.10;;;;;;;18.82;59.30;102280.25;5028149;22;20509;-86
2021/07/20 05:38:08;;;;;;;0.40;0.38;;;;;;;18.86;58.89;102282.78;5012982;28;20042;-86
2021/07/20 05:40:35;;;;;;;1.98;0.57;;;;;;;18.83;59.13;102279.28;5012807;28;20030;-86
2021/07/20 05:43:01;;;;;;;0.08;0.08;;;;;;;18.83;59.05;102280.19;5012195;28;20481;-86
2021/07/20 05:45:55;;;;;;;0.00;0.00;;;;;;;18.93;59.12;102275.44;5012223;28;20033;-86
2021/07/20 05:48:26;;;;;;;0.10;0.10;;;;;;;18.87;59.04;102278.28;4996993;28;20065;-86
2021/07/20 05:50:54;;;;;;;0.00;0.00;;;;;;;18.93;59.20;102278.13;5002425;28;20101;-86
2021/07/20 05:53:28;;;;;;;0.47;0.47;;;;;;;18.98;59.28;102281.53;5011939;28;20381;-86
2021/07/20 05:55:59;;;;;;;0.10;0.10;;;;;;;19.07;59.08;102280.38;5012639;28;20063;-86
2021/07/20 05:58:25;;;;;;;0.10;0.10;;;;;;;19.12;58.51;102280.22;5012936;28;20082;-86
2021/07/20 06:00:53;;;;;;;0.10;0.10;;;;;;;19.18;58.47;102282.69;5012356;28;20038;-86
2021/07/20 06:03:23;;;;;;;0.30;0.30;;;;;;;19.23;58.26;102286.97;5005992;28;20030;-86
2021/07/20 06:05:51;;;;;;;6.82;0.65;;;;;;;19.27;58.25;102285.06;5006139;28;20026;-86
2021/07/20 06:08:20;;;;;;;0.30;0.30;;;;;;;19.33;58.55;102287.53;5005877;28;20026;-86
2021/07/20 06:10:51;;;;;;;0.40;0.40;;;;;;;19.38;57.99;102282.88;5004370;28;20527;-85
2021/07/20 06:13:18;;;;;;;0.25;0.25;;;;;;;19.44;57.98;102288.97;5011252;28;20049;-87
2021/07/20 06:15:47;;;;;;;0.45;0.40;;;;;;;19.50;57.48;102289.66;5011761;28;20026;-83
2021/07/20 06:18:13;;;;;;;0.20;0.20;;;;;;;19.53;57.82;102288.69;5006712;28;20036;-84
2021/07/20 06:20:48;;;;;;;0.10;0.10;;;;;;;19.62;57.23;102293.72;5006510;28;20038;-83
2021/07/20 06:23:15;;;;;;;0.30;0.30;;;;;;;19.66;57.43;102291.81;5004976;28;20477;-84
2021/07/20 06:25:42;;;;;;;0.10;0.10;;;;;;;19.70;57.04;102297.03;5012023;28;20033;-84
2021/07/20 06:28:09;;;;;;;0.00;0.00;;;;;;;19.72;56.17;102295.16;4997346;28;20084;-83
2021/07/20 06:30:37;;;;;;;1.23;0.82;;;;;;;19.78;57.09;102298.56;5011759;28;20095;-82
2021/07/20 06:33:04;;;;;;;0.10;0.10;;;;;;;19.80;56.74;102294.00;5011873;28;20022;-84
2021/07/20 06:35:30;;;;;;;2.92;1.23;;;;;;;19.82;56.32;102294.84;5011689;28;20457;-84
2021/07/20 06:37:57;;;;;;;0.10;0.10;;;;;;;19.87;56.13;102304.50;5011475;28;20416;-83
2021/07/20 06:40:23;;;;;;;2.80;1.30;;;;;;;19.94;56.34;102302.50;4996578;28;20026;-83
2021/07/20 06:42:51;;;;;;;0.10;0.10;;;;;;;20.02;55.97;102305.75;5004241;28;20080;-83
2021/07/20 06:45:17;;;;;;;1.15;0.38;;;;;;;20.10;55.38;102302.81;5005521;28;20033;-83
2021/07/20 06:47:47;;;;;;;0.00;0.00;;;;;;;20.12;55.02;102298.25;5009162;28;20033;-83
2021/07/20 06:50:17;;;;;;;0.00;0.00;;;;;;;20.21;55.41;102299.72;5011249;28;20026;-83
2021/07/20 06:52:44;;;;;;;0.20;0.20;;;;;;;20.22;55.27;102298.78;5008951;28;20037;-83
2021/07/20 06:55:12;;;;;;;0.80;0.80;;;;;;;20.28;55.26;102303.94;5001219;28;20022;-83
2021/07/20 06:57:42;;;;;;;0.52;0.52;;;;;;;20.28;54.83;102306.63;5012752;28;20030;-83
2021/07/20 07:00:09;;;;;;;0.20;0.20;;;;;;;20.33;54.83;102310.00;5012546;28;20508;-84
2021/07/20 07:02:38;;;;;;;0.77;0.77;;;;;;;20.41;54.80;102314.22;5010867;28;20041;-82
2021/07/20 07:05:13;;;;;;;0.55;0.55;;;;;;;20.34;51.49;102311.78;5009241;28;20065;-84
2021/07/20 07:07:40;;;;;;;0.80;0.80;;;;;;;20.45;53.08;102314.06;5008024;28;20060;-83
2021/07/20 07:10:08;;;;;;;0.28;0.28;;;;;;;20.49;51.72;102314.81;5010038;28;20033;-83
2021/07/20 07:12:37;;;;;;;0.10;0.10;;;;;;;20.61;53.15;102322.44;5006832;28;20412;-84
2021/07/20 07:15:06;;;;;;;0.40;0.40;;;;;;;20.60;51.68;102320.66;5010770;28;20469;-83
2021/07/20 07:17:34;;;;;;;0.40;0.40;;;;;;;20.67;51.48;102322.19;5007768;28;20022;-83
2021/07/20 07:20:03;;;;;;;0.03;0.03;;;;;;;20.71;51.61;102322.06;5013369;28;20032;-83
2021/07/20 07:22:31;;;;;;;0.17;0.17;;;;;;;20.76;51.08;102320.09;5011708;28;20031;-83
2021/07/20 07:24:57;;;;;;;1.40;1.17;;;;;;;20.88;51.99;102308.81;5010663;28;20061;-84
2021/07/20 07:27:25;;;;;;;0.10;0.10;;;;;;;20.92;51.51;102310.47;5013587;28;20413;-83
2021/07/20 07:29:56;;;;;;;0.30;0.30;;;;;;;21.12;51.83;102311.47;5014855;28;20473;-83
2021/07/20 07:32:23;;;;;;;0.80;0.80;;;;;;;21.19;51.40;102315.66;5013932;28;20034;-84
2021/07/20 07:34:50;;;;;;;0.10;0.10;;;;;;;21.26;50.93;102311.78;5015321;28;20109;-83
2021/07/20 07:37:20;;;;;;;0.10;0.10;;;;;;;21.38;51.34;102313.06;4997140;28;20031;-84
2021/07/20 07:39:49;;;;;;;0.25;0.25;;;;;;;21.46;50.93;102315.47;4996207;28;20409;-83
2021/07/20 07:42:17;;;;;;;0.55;0.55;;;;;;;21.51;50.75;102313.44;5000466;28;20033;-84
2021/07/20 07:44:46;;;;;;;0.10;0.10;;;;;;;21.56;49.50;102316.84;5015118;28;20487;-84
2021/07/20 07:47:13;;;;;;;0.00;0.00;;;;;;;21.63;50.14;102310.25;5014822;28;20045;-84
2021/07/20 07:49:41;;;;;;;0.08;0.08;;;;;;;21.54;49.72;102313.28;5010871;28;20188;-83
2021/07/20 07:52:09;;;;;;;0.08;0.08;;;;;;;21.64;49.93;102317.38;5006280;28;20036;-84
2021/07/20 07:54:35;;;;;;;0.10;0.10;;;;;;;21.58;48.66;102314.97;5005625;28;20414;-83
2021/07/20 07:57:02;;;;;;;0.20;0.20;;;;;;;21.74;49.83;102320.53;5008314;28;20481;-84
2021/07/20 07:59:30;;;;;;;0.20;0.20;;;;;;;21.78;48.05;102318.59;5013664;28;20026;-84
2021/07/20 08:01:59;;;;;;;0.55;0.55;;;;;;;21.88;49.23;102322.66;5013423;28;20030;-83
2021/07/20 08:04:27;;;;;;;0.10;0.10;;;;;;;21.88;48.51;102319.97;5011745;28;20076;-83
2021/07/20 08:06:56;;;;;;;0.30;0.30;;;;;;;22.00;49.01;102317.66;5014272;28;20022;-84
2021/07/20 08:09:25;;;;;;;0.10;0.10;;;;;;;22.03;49.22;102317.50;5014346;28;20029;-84
2021/07/20 08:11:52;;;;;;;0.20;0.20;;;;;;;22.18;49.35;102313.22;5006262;28;20338;-84
2021/07/20 08:14:18;;;;;;;0.05;0.05;;;;;;;22.21;47.59;102315.81;5013846;28;20096;-84
2021/07/20 08:16:49;;;;;;;0.10;0.10;;;;;;;22.30;48.44;102308.13;5009684;28;20465;-83
2021/07/20 08:19:19;;;;;;;0.23;0.23;;;;;;;22.38;48.28;102317.75;5012498;28;20029;-85
2021/07/20 08:21:46;;;;;;;0.10;0.10;;;;;;;22.47;48.76;102317.31;5008925;28;20060;-83
2021/07/20 08:24:13;;;;;;;0.35;0.22;;;;;;;22.59;49.03;102314.06;5001591;28;20044;-83
2021/07/20 08:26:48;;;;;;;0.25;0.25;;;;;;;22.84;48.53;102310.16;4997439;28;20092;-82
2021/07/20 08:29:19;;;;;;;0.40;0.40;;;;;;;23.01;48.48;102309.31;5006049;28;20030;-83
2021/07/20 08:31:51;;;;;;;0.35;0.35;;;;;;;23.19;48.09;102309.38;5009201;28;20034;-83
2021/07/20 08:34:29;;;;;;;0.35;0.35;;;;;;;23.35;47.82;102306.78;5007502;28;20038;-89
2021/07/20 08:36:58;;;;;;;0.10;0.10;;;;;;;23.40;47.27;102308.31;5003202;28;20046;-84
2021/07/20 08:39:26;;;;;;;0.45;0.45;;;;;;;23.49;46.96;102312.38;5006579;28;20398;-84
2021/07/20 08:42:12;;;;;;;0.55;0.55;;;;;;;23.59;46.22;102313.63;5012091;28;20026;-86
2021/07/20 08:45:15;;;;;;;0.00;0.00;;;;;;;23.66;45.61;102316.03;5000130;28;20492;-88
2021/07/20 08:53:39;;;;;;;0.10;0.10;;;;;;;23.59;45.63;102308.22;5067718;28;20062;-89
2021/07/20 08:56:06;;;;;;;0.32;0.32;;;;;;;23.52;44.80;102309.50;5048539;28;20095;-90
2021/07/20 09:01:37;;;;;;;0.32;0.32;;;;;;;23.59;43.33;102310.94;5069403;27;20417;-89
2021/07/20 09:04:14;;;;;;;0.10;0.10;;;;;;;23.67;44.76;102312.38;5060784;28;20029;-90
2021/07/20 09:09:26;;;;;;;0.10;0.10;;;;;;;23.78;42.09;102318.09;5067110;27;20407;-89
2021/07/20 09:12:24;;;;;;;0.85;0.77;;;;;;;23.90;45.32;102314.75;5067318;28;20033;-89
2021/07/20 09:17:45;;;;;;;0.40;0.40;;;;;;;23.97;45.37;102319.88;5079944;27;20406;-89
2021/07/20 09:20:22;;;;;;;0.40;0.40;;;;;;;24.11;44.59;102317.25;5064599;28;20086;-90
2021/07/20 09:23:03;;;;;;;2.38;0.90;;;;;;;24.23;44.39;102315.75;5065064;28;20549;-91
2021/07/20 09:25:33;;;;;;;1.70;1.58;;;;;;;24.34;43.49;102317.88;5063389;28;20039;-90
2021/07/20 09:31:20;;;;;;;0.10;0.10;;;;;;;24.33;44.09;102316.13;5069557;27;20203;-91
2021/07/20 09:36:52;;;;;;;0.63;0.57;;;;;;;24.53;43.69;102313.16;5113439;27;20600;-91
2021/07/20 09:39:59;;;;;;;0.10;0.10;;;;;;;24.73;42.43;102316.63;5108291;28;20521;-90
2021/07/20 09:45:24;;;;;;;0.38;0.38;;;;;;;24.85;42.44;102305.06;5055518;27;20432;-90
2021/07/20 09:50:43;;;;;;;1.13;0.85;;;;;;;24.92;41.98;102307.44;5095319;27;20963;-90
2021/07/20 09:56:32;;;;;;;0.13;0.13;;;;;;;25.12;41.11;102307.16;5079349;27;20400;-89
2021/07/20 09:59:38;;;;;;;0.10;0.10;;;;;;;25.22;42.28;102307.47;5083519;28;20040;-90
2021/07/20 10:02:17;;;;;;;0.15;0.15;;;;;;;25.26;42.06;102303.63;5084891;28;20039;-91
2021/07/20 10:05:14;;;;;;;0.32;0.32;;;;;;;25.33;41.03;102296.88;5075125;28;20017;-92
2021/07/20 10:27:06;;;;;;;0.30;0.30;;;;;;;25.92;41.48;102300.59;5126757;23;20048;-83
2021/07/20 10:29:48;;;;;;;0.20;0.20;;;;;;;25.99;40.79;102299.25;5056043;28;20040;-85
2021/07/20 10:32:23;;;;;;;10.80;1.15;;;;;;;26.10;40.61;102291.31;5061056;28;20066;-83
2021/07/20 10:34:55;;;;;;;0.15;0.15;;;;;;;26.10;40.85;102290.47;5042593;28;20028;-84
2021/07/20 10:37:27;;;;;;;0.68;0.68;;;;;;;26.18;40.00;102287.25;5068764;28;20043;-84
2021/07/20 10:40:04;;;;;;;0.10;0.10;;;;;;;26.18;40.50;102284.53;5073799;28;20513;-84
2021/07/20 10:42:39;;;;;;;0.17;0.17;;;;;;;26.23;40.34;102282.41;5068639;28;20021;-83
2021/07/20 10:45:09;;;;;;;0.30;0.30;;;;;;;26.27;40.49;102286.66;5068802;28;20063;-84
2021/07/20 10:47:57;;;;;;;1.55;0.45;;;;;;;26.40;39.88;102282.19;5064705;28;20619;-83
2021/07/20 10:50:29;;;;;;;0.57;0.57;;;;;;;26.49;39.71;102280.72;5073101;28;20082;-84
2021/07/20 10:53:08;;;;;;;0.10;0.10;;;;;;;26.57;40.23;102277.53;5068388;28;20021;-90
2021/07/20 10:55:47;;;;;;;0.10;0.10;;;;;;;26.44;38.94;102283.75;5067832;28;20036;-86
2021/07/20 11:01:11;;;;;;;1.35;0.45;;;;;;;26.58;39.98;102280.13;5077138;27;20210;-85
2021/07/20 11:04:17;;;;;;;0.20;0.20;;;;;;;26.70;40.14;102273.00;5068617;28;20043;-86
2021/07/20 11:06:47;;;;;;;0.10;0.10;;;;;;;26.66;36.95;102271.47;5049003;28;20039;-87
2021/07/20 11:09:18;;;;;;;0.20;0.20;;;;;;;26.77;38.68;102273.50;5049779;28;20122;-85
2021/07/20 11:11:53;;;;;;;0.70;0.70;;;;;;;26.83;39.04;102272.22;5049398;28;20048;-84
2021/07/20 11:14:25;;;;;;;0.20;0.20;;;;;;;26.90;39.34;102273.56;5049658;28;20029;-83
2021/07/20 11:16:53;;;;;;;0.40;0.40;;;;;;;26.96;39.35;102273.16;5049352;28;20530;-80
2021/07/20 11:19:24;;;;;;;0.43;0.38;;;;;;;27.02;39.26;102267.28;5049435;28;20036;-81
2021/07/20 11:21:51;;;;;;;1.10;0.40;;;;;;;27.16;39.02;102265.50;5049774;28;20033;-81
2021/07/20 11:24:18;;;;;;;0.28;0.28;;;;;;;27.13;36.33;102258.41;5049439;28;20286;-81
2021/07/20 11:26:45;;;;;;;0.10;0.10;;;;;;;27.22;36.74;102259.63;5049479;28;20025;-81
2021/07/20 11:29:13;;;;;;;0.43;0.43;;;;;;;27.25;37.38;102256.69;5049124;28;20108;-81
2021/07/20 11:31:48;;;;;;;0.28;0.28;;;;;;;27.27;36.93;102254.75;5049508;28;20060;-81
2021/07/20 11:34:24;;;;;;;0.45;0.45;;;;;;;27.18;38.70;102255.34;5049597;28;20064;-82
2021/07/20 11:36:54;;;;;;;0.43;0.43;;;;;;;27.16;38.68;102257.34;5032278;28;20039;-81
2021/07/20 11:39:25;;;;;;;0.10;0.10;;;;;;;27.22;37.69;102254.19;5048858;28;20056;-82
2021/07/20 11:44:56;;;;;;;0.40;0.40;;;;;;;27.48;36.41;102262.41;5123745;27;20400;-81
2021/07/20 11:50:35;;;;;;;0.20;0.20;;;;;;;27.52;38.10;102261.25;5034137;28;20767;-81
2021/07/20 11:53:31;;;;;;;0.43;0.43;;;;;;;27.79;35.84;102254.81;5007569;28;20026;-82
2021/07/20 11:55:59;;;;;;;3.40;0.38;;;;;;;27.77;37.57;102253.06;5009523;28;20030;-82
2021/07/20 11:59:05;;;;;;;0.52;0.52;;;;;;;28.02;37.38;102248.56;4998733;28;20035;-83
2021/07/20 12:02:11;;;;;;;0.85;0.80;;;;;;;28.15;37.02;102245.00;5006746;28;20084;-82
2021/07/20 12:05:04;;;;;;;0.32;0.32;;;;;;;28.13;36.38;102246.97;5001803;28;20493;-83
2021/07/20 12:12:54;;;;;;;0.25;0.25;;;;;;;28.28;36.86;102245.84;5061513;28;20454;-84
2021/07/20 12:15:24;;;;;;;0.55;0.55;;;;;;;28.13;35.49;102236.94;5034315;28;20036;-84
2021/07/20 12:17:52;;;;;;;1.65;1.45;;;;;;;28.20;34.17;102240.06;5031073;28;20022;-84
2021/07/20 12:20:20;;;;;;;0.30;0.30;;;;;;;28.40;36.55;102228.59;5036913;28;20033;-84
2021/07/20 12:22:48;;;;;;;0.10;0.10;;;;;;;28.45;35.16;102233.72;5035403;28;20112;-84
2021/07/20 13:39:16;;;;;;;0.25;0.25;;;;;;;30.68;33.12;102213.53;3806864;23;20440;-92
2021/07/20 13:52:47;;;;;;;;;;;;;;;;;;;;;
2021/07/20 14:17:43;;;;;;;0.75;0.75;;;;;;;31.17;30.95;102197.53;5621148;23;20105;-93
2021/07/20 15:32:56;;;;;;;0.38;0.38;;;;;;;32.18;29.52;102159.34;5058916;23;20044;-92
2021/07/20 15:35:38;;;;;;;0.63;0.63;;;;;;;32.01;28.93;102162.78;5047577;28;20124;-90
2021/07/20 16:05:16;;;;;;;0.50;0.50;;;;;;;32.94;28.39;102157.84;5129412;23;20094;-84
2021/07/20 16:07:43;;;;;;;1.65;0.90;;;;;;;32.94;27.44;102154.22;5063378;28;20063;-86
2021/07/20 16:10:13;;;;;;;0.43;0.43;;;;;;;32.99;27.73;102149.19;5057700;28;20025;-90
2021/07/20 16:12:42;;;;;;;0.32;0.32;;;;;;;33.04;27.16;102144.09;5053797;28;20061;-89
2021/07/20 16:18:11;;;;;;;1.00;0.75;;;;;;;33.11;28.52;102145.25;5076763;28;20419;-87
2021/07/20 16:20:44;;;;;;;0.63;0.60;;;;;;;33.24;28.60;102155.91;5068677;28;20502;-88
2021/07/20 16:23:13;;;;;;;0.25;0.25;;;;;;;33.28;28.80;102151.84;5064067;28;20033;-88